createdAt,value
2018-07-28T00:00:11.924Z,24.81
2018-07-28T00:00:33.716Z,24.82
2018-07-28T00:00:55.479Z,24.81
2018-07-28T00:01:17.260Z,24.80
2018-07-28T00:01:39.055Z,24.81
2018-07-28T00:02:00.850Z,24.81
2018-07-28T00:02:22.613Z,24.82
2018-07-28T00:02:44.409Z,24.81
2018-07-28T00:03:06.193Z,24.82
2018-07-28T00:03:27.950Z,24.82
2018-07-28T00:03:49.745Z,24.82
2018-07-28T00:04:11.524Z,24.82
2018-07-28T00:04:33.302Z,24.82
2018-07-28T00:04:55.065Z,24.82
2018-07-28T00:05:16.838Z,24.82
2018-07-28T00:05:38.615Z,24.82
2018-07-28T00:06:00.399Z,24.81
2018-07-28T00:06:22.194Z,24.81
2018-07-28T00:06:43.951Z,24.82
2018-07-28T00:07:05.733Z,24.81
2018-07-28T00:07:27.508Z,24.81
2018-07-28T00:07:49.265Z,24.82
2018-07-28T00:08:11.035Z,24.82
2018-07-28T00:08:32.821Z,24.81
2018-07-28T00:08:54.588Z,24.81
2018-07-28T00:09:16.362Z,24.81
2018-07-28T00:09:38.163Z,24.81
2018-07-28T00:09:59.930Z,24.81
2018-07-28T00:10:21.686Z,24.81
2018-07-28T00:10:43.451Z,24.82
2018-07-28T00:11:05.218Z,24.82
2018-07-28T00:11:26.971Z,24.82
2018-07-28T00:11:48.760Z,24.82
2018-07-28T00:12:10.556Z,24.81
2018-07-28T00:12:32.334Z,24.81
2018-07-28T00:12:54.128Z,24.81
2018-07-28T00:13:15.907Z,24.80
2018-07-28T00:13:37.692Z,24.81
2018-07-28T00:13:59.473Z,24.80
2018-07-28T00:14:21.241Z,24.81
2018-07-28T00:14:42.998Z,24.80
2018-07-28T00:15:06.247Z,24.81
2018-07-28T00:15:28.031Z,24.80
2018-07-28T00:15:49.799Z,24.80
2018-07-28T00:16:11.591Z,24.80
2018-07-28T00:16:33.398Z,24.82
2018-07-28T00:16:55.174Z,24.80
2018-07-28T00:17:16.978Z,24.81
2018-07-28T00:17:39.429Z,24.79
2018-07-28T00:18:01.197Z,24.81
2018-07-28T00:18:22.983Z,24.81
2018-07-28T00:18:44.746Z,24.81
2018-07-28T00:19:06.527Z,24.80
2018-07-28T00:19:28.315Z,24.81
2018-07-28T00:19:50.103Z,24.80
2018-07-28T00:20:12.901Z,24.80
2018-07-28T00:20:34.676Z,24.80
2018-07-28T00:20:56.443Z,24.80
2018-07-28T00:21:18.200Z,24.80
2018-07-28T00:21:39.982Z,24.80
2018-07-28T00:22:01.736Z,24.80
2018-07-28T00:22:23.548Z,24.79
2018-07-28T00:22:45.322Z,24.80
2018-07-28T00:23:07.154Z,24.81
2018-07-28T00:23:28.906Z,24.80
2018-07-28T00:23:50.676Z,24.81
2018-07-28T00:24:12.448Z,24.80
2018-07-28T00:24:34.220Z,24.80
2018-07-28T00:24:55.990Z,24.82
2018-07-28T00:25:17.753Z,24.81
2018-07-28T00:25:44.935Z,24.80
2018-07-28T00:26:12.105Z,24.81
2018-07-28T00:26:33.883Z,24.80
2018-07-28T00:26:55.644Z,24.80
2018-07-28T00:27:17.416Z,24.80
2018-07-28T00:27:39.417Z,24.80
2018-07-28T00:28:01.197Z,24.80
2018-07-28T00:28:22.959Z,24.80
2018-07-28T00:28:44.723Z,24.79
2018-07-28T00:29:06.493Z,24.80
2018-07-28T00:29:28.331Z,24.80
2018-07-28T00:29:50.093Z,24.79
2018-07-28T00:30:12.786Z,24.80
2018-07-28T00:30:34.606Z,24.80
2018-07-28T00:30:56.380Z,24.79
2018-07-28T00:31:18.147Z,24.80
2018-07-28T00:31:39.923Z,24.80
2018-07-28T00:32:01.682Z,24.80
2018-07-28T00:32:23.513Z,24.80
2018-07-28T00:32:45.319Z,24.80
2018-07-28T00:33:07.091Z,24.79
2018-07-28T00:33:28.878Z,24.79
2018-07-28T00:33:50.642Z,24.79
2018-07-28T00:34:12.427Z,24.80
2018-07-28T00:34:34.207Z,24.79
2018-07-28T00:34:55.987Z,24.79
2018-07-28T00:35:17.783Z,24.80
2018-07-28T00:35:39.543Z,24.79
2018-07-28T00:36:01.299Z,24.80
2018-07-28T00:36:23.069Z,24.80
2018-07-28T00:36:44.843Z,24.79
2018-07-28T00:37:06.661Z,24.79
2018-07-28T00:37:28.438Z,24.80
2018-07-28T00:37:50.334Z,24.79
2018-07-28T00:38:12.115Z,24.79
2018-07-28T00:38:33.880Z,24.79
2018-07-28T00:38:55.674Z,24.79
2018-07-28T00:39:17.858Z,24.79
2018-07-28T00:39:39.614Z,24.80
2018-07-28T00:40:01.384Z,24.79
2018-07-28T00:40:23.130Z,24.79
2018-07-28T00:40:44.895Z,24.79
2018-07-28T00:41:06.661Z,24.78
2018-07-28T00:41:28.458Z,24.79
2018-07-28T00:41:50.230Z,24.79
2018-07-28T00:42:11.989Z,24.79
2018-07-28T00:42:33.781Z,24.78
2018-07-28T00:42:55.590Z,24.78
2018-07-28T00:43:17.370Z,24.79
2018-07-28T00:43:39.136Z,24.78
2018-07-28T00:44:00.924Z,24.79
2018-07-28T00:44:22.712Z,24.78
2018-07-28T00:44:44.480Z,24.78
2018-07-28T00:45:06.254Z,24.79
2018-07-28T00:45:28.045Z,24.79
2018-07-28T00:45:49.799Z,24.79
2018-07-28T00:46:11.561Z,24.79
2018-07-28T00:46:33.334Z,24.78
2018-07-28T00:46:55.132Z,24.79
2018-07-28T00:47:16.955Z,24.79
2018-07-28T00:47:38.731Z,24.79
2018-07-28T00:48:00.530Z,24.78
2018-07-28T00:48:22.323Z,24.79
2018-07-28T00:48:44.122Z,24.79
2018-07-28T00:49:06.706Z,24.79
2018-07-28T00:49:28.504Z,24.78
2018-07-28T00:49:50.316Z,24.79
2018-07-28T00:50:12.095Z,24.79
2018-07-28T00:50:33.861Z,24.80
2018-07-28T00:50:55.610Z,24.79
2018-07-28T00:51:17.372Z,24.79
2018-07-28T00:51:39.129Z,24.79
2018-07-28T00:52:00.892Z,24.79
2018-07-28T00:52:22.684Z,24.79
2018-07-28T00:52:44.458Z,24.79
2018-07-28T00:53:06.231Z,24.78
2018-07-28T00:53:27.986Z,24.78
2018-07-28T00:53:49.734Z,24.79
2018-07-28T00:54:11.575Z,24.79
2018-07-28T00:54:33.367Z,24.79
2018-07-28T00:54:55.135Z,24.78
2018-07-28T00:55:16.900Z,24.79
2018-07-28T00:55:38.687Z,24.79
2018-07-28T00:56:00.470Z,24.79
2018-07-28T00:56:22.228Z,24.79
2018-07-28T00:56:43.981Z,24.79
2018-07-28T00:57:05.751Z,24.78
2018-07-28T00:57:27.538Z,24.79
2018-07-28T00:57:49.360Z,24.78
2018-07-28T00:58:11.170Z,24.79
2018-07-28T00:58:32.926Z,24.79
2018-07-28T00:58:54.707Z,24.78
2018-07-28T00:59:16.478Z,24.78
2018-07-28T00:59:38.307Z,24.78
2018-07-28T01:00:00.080Z,24.78
2018-07-28T01:00:21.843Z,24.78
2018-07-28T01:00:43.623Z,24.78
2018-07-28T01:01:05.405Z,24.77
2018-07-28T01:01:27.272Z,24.76
2018-07-28T01:01:49.067Z,24.77
2018-07-28T01:02:10.844Z,24.76
2018-07-28T01:02:32.607Z,24.77
2018-07-28T01:02:54.455Z,24.78
2018-07-28T01:03:16.425Z,24.77
2018-07-28T01:03:38.195Z,24.77
2018-07-28T01:03:59.954Z,24.78
2018-07-28T01:04:21.717Z,24.78
2018-07-28T01:04:43.510Z,24.77
2018-07-28T01:05:05.281Z,24.77
2018-07-28T01:05:27.059Z,24.78
2018-07-28T01:05:48.831Z,24.78
2018-07-28T01:06:10.640Z,24.78
2018-07-28T01:06:32.425Z,24.79
2018-07-28T01:06:54.193Z,24.79
2018-07-28T01:07:15.947Z,24.78
2018-07-28T01:07:37.971Z,24.78
2018-07-28T01:07:59.760Z,24.78
2018-07-28T01:08:21.643Z,24.78
2018-07-28T01:08:43.404Z,24.78
2018-07-28T01:09:05.171Z,24.78
2018-07-28T01:09:26.954Z,24.78
2018-07-28T01:09:48.725Z,24.78
2018-07-28T01:10:10.532Z,24.78
2018-07-28T01:10:32.340Z,24.79
2018-07-28T01:10:54.116Z,24.77
2018-07-28T01:11:15.898Z,24.78
2018-07-28T01:11:37.855Z,24.77
2018-07-28T01:11:59.609Z,24.77
2018-07-28T01:12:21.384Z,24.78
2018-07-28T01:12:43.229Z,24.77
2018-07-28T01:13:04.996Z,24.77
2018-07-28T01:13:26.800Z,24.77
2018-07-28T01:13:48.573Z,24.76
2018-07-28T01:14:10.343Z,24.77
2018-07-28T01:14:32.177Z,24.77
2018-07-28T01:14:53.958Z,24.77
2018-07-28T01:15:15.752Z,24.77
2018-07-28T01:15:37.510Z,24.77
2018-07-28T01:15:59.279Z,24.78
2018-07-28T01:16:21.026Z,24.77
2018-07-28T01:16:42.823Z,24.77
2018-07-28T01:17:04.627Z,24.76
2018-07-28T01:17:26.383Z,24.77
2018-07-28T01:17:48.158Z,24.78
2018-07-28T01:18:09.935Z,24.78
2018-07-28T01:18:31.734Z,24.78
2018-07-28T01:18:53.492Z,24.76
2018-07-28T01:19:15.314Z,24.77
2018-07-28T01:19:37.067Z,24.75
2018-07-28T01:19:58.829Z,24.76
2018-07-28T01:20:20.603Z,24.76
2018-07-28T01:20:42.363Z,24.76
2018-07-28T01:21:04.125Z,24.76
2018-07-28T01:21:25.903Z,24.76
2018-07-28T01:21:47.676Z,24.77
2018-07-28T01:22:09.461Z,24.75
2018-07-28T01:22:31.213Z,24.76
2018-07-28T01:22:52.978Z,24.76
2018-07-28T01:23:14.727Z,24.77
2018-07-28T01:23:36.634Z,24.77
2018-07-28T01:23:58.535Z,24.76
2018-07-28T01:24:20.318Z,24.77
2018-07-28T01:24:42.102Z,24.77
2018-07-28T01:25:03.875Z,24.77
2018-07-28T01:25:25.665Z,24.75
2018-07-28T01:25:47.434Z,24.76
2018-07-28T01:26:09.210Z,24.77
2018-07-28T01:26:30.988Z,24.77
2018-07-28T01:26:52.747Z,24.77
2018-07-28T01:27:14.534Z,24.76
2018-07-28T01:27:36.347Z,24.78
2018-07-28T01:27:58.126Z,24.76
2018-07-28T01:28:19.915Z,24.76
2018-07-28T01:28:41.700Z,24.77
2018-07-28T01:29:09.024Z,24.77
2018-07-28T01:29:30.802Z,24.77
2018-07-28T01:29:52.579Z,24.77
2018-07-28T01:30:18.612Z,24.77
2018-07-28T01:30:40.384Z,24.75
2018-07-28T01:31:02.153Z,24.77
2018-07-28T01:31:23.924Z,24.76
2018-07-28T01:31:45.794Z,24.76
2018-07-28T01:32:07.607Z,24.77
2018-07-28T01:32:29.387Z,24.77
2018-07-28T01:32:51.131Z,24.77
2018-07-28T01:33:12.924Z,24.76
2018-07-28T01:33:34.760Z,24.77
2018-07-28T01:33:56.562Z,24.77
2018-07-28T01:34:18.595Z,24.77
2018-07-28T01:34:40.350Z,24.76
2018-07-28T01:35:02.135Z,24.76
2018-07-28T01:35:23.901Z,24.77
2018-07-28T01:35:45.658Z,24.77
2018-07-28T01:36:07.422Z,24.75
2018-07-28T01:36:29.245Z,24.76
2018-07-28T01:36:51.016Z,24.76
2018-07-28T01:37:12.782Z,24.76
2018-07-28T01:37:34.568Z,24.77
2018-07-28T01:37:56.351Z,24.75
2018-07-28T01:38:18.099Z,24.75
2018-07-28T01:38:39.908Z,24.76
2018-07-28T01:39:01.717Z,24.76
2018-07-28T01:39:23.505Z,24.76
2018-07-28T01:39:45.273Z,24.75
2018-07-28T01:40:07.147Z,24.75
2018-07-28T01:40:28.959Z,24.76
2018-07-28T01:40:50.740Z,24.75
2018-07-28T01:41:12.500Z,24.76
2018-07-28T01:41:34.258Z,24.75
2018-07-28T01:41:56.015Z,24.76
2018-07-28T01:42:17.778Z,24.76
2018-07-28T01:42:39.540Z,24.76
2018-07-28T01:43:01.306Z,24.75
2018-07-28T01:43:23.058Z,24.76
2018-07-28T01:43:44.821Z,24.75
2018-07-28T01:44:06.914Z,24.74
2018-07-28T01:44:28.691Z,24.76
2018-07-28T01:44:50.455Z,24.76
2018-07-28T01:45:12.215Z,24.76
2018-07-28T01:45:34.002Z,24.76
2018-07-28T01:45:56.099Z,24.75
2018-07-28T01:46:17.900Z,24.75
2018-07-28T01:46:39.965Z,24.74
2018-07-28T01:47:01.735Z,24.75
2018-07-28T01:47:23.549Z,24.75
2018-07-28T01:47:45.315Z,24.75
2018-07-28T01:48:07.113Z,24.75
2018-07-28T01:48:28.882Z,24.74
2018-07-28T01:48:50.647Z,24.75
2018-07-28T01:49:12.422Z,24.74
2018-07-28T01:49:34.302Z,24.75
2018-07-28T01:49:56.030Z,24.75
2018-07-28T01:50:17.784Z,24.75
2018-07-28T01:50:39.551Z,24.75
2018-07-28T01:51:01.309Z,24.74
2018-07-28T01:51:23.079Z,24.75
2018-07-28T01:51:44.844Z,24.74
2018-07-28T01:52:06.615Z,24.74
2018-07-28T01:52:28.402Z,24.74
2018-07-28T01:52:50.175Z,24.73
2018-07-28T01:53:11.933Z,24.74
2018-07-28T01:53:33.683Z,24.75
2018-07-28T01:53:55.447Z,24.74
2018-07-28T01:54:17.217Z,24.74
2018-07-28T01:54:38.978Z,24.75
2018-07-28T01:55:00.744Z,24.74
2018-07-28T01:55:22.530Z,24.75
2018-07-28T01:55:44.293Z,24.75
2018-07-28T01:56:06.064Z,24.74
2018-07-28T01:56:27.861Z,24.75
2018-07-28T01:56:49.620Z,24.75
2018-07-28T01:57:11.366Z,24.75
2018-07-28T01:57:33.171Z,24.74
2018-07-28T01:57:54.939Z,24.73
2018-07-28T01:58:16.688Z,24.75
2018-07-28T01:58:38.475Z,24.74
2018-07-28T01:59:00.296Z,24.74
2018-07-28T01:59:22.098Z,24.74
2018-07-28T01:59:43.945Z,24.73
2018-07-28T02:00:05.861Z,24.74
2018-07-28T02:00:27.652Z,24.74
2018-07-28T02:00:49.434Z,24.74
2018-07-28T02:01:11.204Z,24.74
2018-07-28T02:01:32.973Z,24.75
2018-07-28T02:01:54.744Z,24.75
2018-07-28T02:02:16.516Z,24.75
2018-07-28T02:02:38.318Z,24.76
2018-07-28T02:03:00.082Z,24.75
2018-07-28T02:03:22.440Z,24.75
2018-07-28T02:03:44.320Z,24.75
2018-07-28T02:04:06.084Z,24.75
2018-07-28T02:04:27.893Z,24.75
2018-07-28T02:04:49.670Z,24.75
2018-07-28T02:05:11.436Z,24.75
2018-07-28T02:05:33.194Z,24.75
2018-07-28T02:05:54.987Z,24.76
2018-07-28T02:06:16.747Z,24.75
2018-07-28T02:06:38.530Z,24.76
2018-07-28T02:07:00.310Z,24.75
2018-07-28T02:07:22.139Z,24.75
2018-07-28T02:07:43.907Z,24.76
2018-07-28T02:08:05.671Z,24.75
2018-07-28T02:08:27.420Z,24.75
2018-07-28T02:08:49.196Z,24.75
2018-07-28T02:09:11.850Z,24.75
2018-07-28T02:09:33.669Z,24.75
2018-07-28T02:09:55.872Z,24.76
2018-07-28T02:10:17.663Z,24.76
2018-07-28T02:10:39.430Z,24.76
2018-07-28T02:11:01.221Z,24.75
2018-07-28T02:11:23.451Z,24.74
2018-07-28T02:11:45.214Z,24.73
2018-07-28T02:12:06.972Z,24.73
2018-07-28T02:12:28.733Z,24.74
2018-07-28T02:12:50.492Z,24.74
2018-07-28T02:13:12.259Z,24.74
2018-07-28T02:13:34.039Z,24.74
2018-07-28T02:13:55.808Z,24.75
2018-07-28T02:14:17.695Z,24.74
2018-07-28T02:14:39.490Z,24.74
2018-07-28T02:15:01.268Z,24.74
2018-07-28T02:15:23.032Z,24.75
2018-07-28T02:15:44.792Z,24.74
2018-07-28T02:16:06.590Z,24.73
2018-07-28T02:16:28.356Z,24.74
2018-07-28T02:16:50.136Z,24.74
2018-07-28T02:17:11.902Z,24.73
2018-07-28T02:17:33.721Z,24.74
2018-07-28T02:17:55.468Z,24.74
2018-07-28T02:18:17.312Z,24.74
2018-07-28T02:18:39.088Z,24.74
2018-07-28T02:19:00.860Z,24.73
2018-07-28T02:19:22.644Z,24.74
2018-07-28T02:19:44.729Z,24.73
2018-07-28T02:20:07.026Z,24.75
2018-07-28T02:20:28.790Z,24.74
2018-07-28T02:20:50.542Z,24.73
2018-07-28T02:21:12.302Z,24.73
2018-07-28T02:21:34.163Z,24.73
2018-07-28T02:21:55.936Z,24.75
2018-07-28T02:22:17.715Z,24.75
2018-07-28T02:22:39.504Z,24.74
2018-07-28T02:23:01.274Z,24.74
2018-07-28T02:23:23.036Z,24.74
2018-07-28T02:23:44.825Z,24.74
2018-07-28T02:24:06.598Z,24.74
2018-07-28T02:24:28.350Z,24.74
2018-07-28T02:24:50.142Z,24.74
2018-07-28T02:25:12.069Z,24.74
2018-07-28T02:25:33.843Z,24.74
2018-07-28T02:25:55.625Z,24.74
2018-07-28T02:26:17.396Z,24.73
2018-07-28T02:26:40.240Z,24.74
2018-07-28T02:27:01.998Z,24.75
2018-07-28T02:27:23.755Z,24.74
2018-07-28T02:27:45.526Z,24.74
2018-07-28T02:28:07.287Z,24.74
2018-07-28T02:28:29.087Z,24.74
2018-07-28T02:28:50.903Z,24.75
2018-07-28T02:29:12.666Z,24.75
2018-07-28T02:29:34.422Z,24.75
2018-07-28T02:29:56.192Z,24.75
2018-07-28T02:30:17.959Z,24.75
2018-07-28T02:30:39.727Z,24.74
2018-07-28T02:31:01.479Z,24.74
2018-07-28T02:31:23.244Z,24.74
2018-07-28T02:31:45.017Z,24.74
2018-07-28T02:32:06.783Z,24.74
2018-07-28T02:32:28.536Z,24.73
2018-07-28T02:32:50.299Z,24.74
2018-07-28T02:33:12.058Z,24.74
2018-07-28T02:33:33.820Z,24.73
2018-07-28T02:33:55.578Z,24.74
2018-07-28T02:34:17.350Z,24.73
2018-07-28T02:34:39.122Z,24.74
2018-07-28T02:35:00.930Z,24.73
2018-07-28T02:35:22.691Z,24.74
2018-07-28T02:35:44.462Z,24.74
2018-07-28T02:36:06.218Z,24.74
2018-07-28T02:36:27.980Z,24.74
2018-07-28T02:36:49.799Z,24.74
2018-07-28T02:37:11.573Z,24.74
2018-07-28T02:37:33.363Z,24.73
2018-07-28T02:37:55.132Z,24.74
2018-07-28T02:38:17.068Z,24.74
2018-07-28T02:38:38.853Z,24.74
2018-07-28T02:39:00.603Z,24.74
2018-07-28T02:39:22.359Z,24.74
2018-07-28T02:39:44.137Z,24.74
2018-07-28T02:40:05.925Z,24.74
2018-07-28T02:40:27.709Z,24.74
2018-07-28T02:40:49.647Z,24.74
2018-07-28T02:41:11.424Z,24.73
2018-07-28T02:41:33.193Z,24.73
2018-07-28T02:41:54.952Z,24.73
2018-07-28T02:42:16.704Z,24.73
2018-07-28T02:42:38.481Z,24.73
2018-07-28T02:43:00.247Z,24.74
2018-07-28T02:43:22.018Z,24.73
2018-07-28T02:43:43.780Z,24.73
2018-07-28T02:44:05.697Z,24.75
2018-07-28T02:44:27.452Z,24.74
2018-07-28T02:44:49.216Z,24.74
2018-07-28T02:45:11.014Z,24.74
2018-07-28T02:45:32.777Z,24.74
2018-07-28T02:45:54.534Z,24.74
2018-07-28T02:46:16.296Z,24.74
2018-07-28T02:46:38.463Z,24.74
2018-07-28T02:47:00.233Z,24.74
2018-07-28T02:47:22.003Z,24.74
2018-07-28T02:47:43.782Z,24.74
2018-07-28T02:48:05.540Z,24.75
2018-07-28T02:48:27.342Z,24.73
2018-07-28T02:48:49.109Z,24.75
2018-07-28T02:49:10.863Z,24.74
2018-07-28T02:49:32.620Z,24.73
2018-07-28T02:49:54.374Z,24.74
2018-07-28T02:50:16.152Z,24.74
2018-07-28T02:50:37.906Z,24.74
2018-07-28T02:50:59.672Z,24.74
2018-07-28T02:51:21.431Z,24.72
2018-07-28T02:51:43.197Z,24.73
2018-07-28T02:52:04.969Z,24.73
2018-07-28T02:52:26.763Z,24.73
2018-07-28T02:52:48.507Z,24.73
2018-07-28T02:53:10.275Z,24.74
2018-07-28T02:53:32.045Z,24.74
2018-07-28T02:53:53.816Z,24.74
2018-07-28T02:54:15.565Z,24.74
2018-07-28T02:54:37.359Z,24.74
2018-07-28T02:54:59.131Z,24.74
2018-07-28T02:55:20.938Z,24.73
2018-07-28T02:55:42.727Z,24.74
2018-07-28T02:56:04.493Z,24.73
2018-07-28T02:56:26.245Z,24.74
2018-07-28T02:56:48.027Z,24.72
2018-07-28T02:57:09.795Z,24.72
2018-07-28T02:57:31.589Z,24.72
2018-07-28T02:57:53.355Z,24.73
2018-07-28T02:58:15.123Z,24.74
2018-07-28T02:58:36.882Z,24.73
2018-07-28T02:58:58.648Z,24.73
2018-07-28T02:59:20.404Z,24.73
2018-07-28T02:59:42.166Z,24.73
2018-07-28T03:00:03.969Z,24.73
2018-07-28T03:00:25.744Z,24.72
2018-07-28T03:00:47.499Z,24.73
2018-07-28T03:01:09.656Z,24.73
2018-07-28T03:01:31.780Z,24.73
2018-07-28T03:01:53.553Z,24.72
2018-07-28T03:02:15.332Z,24.74
2018-07-28T03:02:37.287Z,24.73
2018-07-28T03:02:59.035Z,24.74
2018-07-28T03:03:20.998Z,24.73
2018-07-28T03:03:42.755Z,24.73
2018-07-28T03:04:04.532Z,24.73
2018-07-28T03:04:26.303Z,24.73
2018-07-28T03:04:48.058Z,24.73
2018-07-28T03:05:09.807Z,24.73
2018-07-28T03:05:31.595Z,24.74
2018-07-28T03:05:53.364Z,24.73
2018-07-28T03:06:15.127Z,24.73
2018-07-28T03:06:36.903Z,24.73
2018-07-28T03:06:58.698Z,24.73
2018-07-28T03:07:20.455Z,24.73
2018-07-28T03:07:42.261Z,24.72
2018-07-28T03:08:04.035Z,24.73
2018-07-28T03:08:25.803Z,24.72
2018-07-28T03:08:47.564Z,24.71
2018-07-28T03:09:09.558Z,24.71
2018-07-28T03:09:31.311Z,24.72
2018-07-28T03:09:53.090Z,24.73
2018-07-28T03:10:14.842Z,24.73
2018-07-28T03:10:36.628Z,24.72
2018-07-28T03:10:58.521Z,24.72
2018-07-28T03:11:20.286Z,24.74
2018-07-28T03:11:42.174Z,24.73
2018-07-28T03:12:03.986Z,24.73
2018-07-28T03:12:25.740Z,24.73
2018-07-28T03:12:47.512Z,24.72
2018-07-28T03:13:09.292Z,24.74
2018-07-28T03:13:31.059Z,24.73
2018-07-28T03:13:52.820Z,24.72
2018-07-28T03:14:14.581Z,24.72
2018-07-28T03:14:36.372Z,24.72
2018-07-28T03:14:58.152Z,24.72
2018-07-28T03:15:19.909Z,24.72
2018-07-28T03:15:41.700Z,24.72
2018-07-28T03:16:03.463Z,24.73
2018-07-28T03:16:25.238Z,24.72
2018-07-28T03:16:47.003Z,24.72
2018-07-28T03:17:08.742Z,24.73
2018-07-28T03:17:30.503Z,24.72
2018-07-28T03:17:52.263Z,24.73
2018-07-28T03:18:14.036Z,24.72
2018-07-28T03:18:35.789Z,24.73
2018-07-28T03:18:57.541Z,24.73
2018-07-28T03:19:19.298Z,24.74
2018-07-28T03:19:41.081Z,24.73
2018-07-28T03:20:02.843Z,24.74
2018-07-28T03:20:24.603Z,24.74
2018-07-28T03:20:46.380Z,24.72
2018-07-28T03:21:08.160Z,24.73
2018-07-28T03:21:29.921Z,24.71
2018-07-28T03:21:51.671Z,24.72
2018-07-28T03:22:13.448Z,24.73
2018-07-28T03:22:35.240Z,24.73
2018-07-28T03:22:57.028Z,24.73
2018-07-28T03:23:18.787Z,24.73
2018-07-28T03:23:40.567Z,24.73
2018-07-28T03:24:02.350Z,24.73
2018-07-28T03:24:24.113Z,24.72
2018-07-28T03:24:45.891Z,24.73
2018-07-28T03:25:07.663Z,24.73
2018-07-28T03:25:29.438Z,24.73
2018-07-28T03:25:51.234Z,24.73
2018-07-28T03:26:13.002Z,24.73
2018-07-28T03:26:34.763Z,24.73
2018-07-28T03:26:56.515Z,24.73
2018-07-28T03:27:18.275Z,24.71
2018-07-28T03:27:40.040Z,24.72
2018-07-28T03:28:01.816Z,24.72
2018-07-28T03:28:23.602Z,24.73
2018-07-28T03:28:45.396Z,24.72
2018-07-28T03:29:07.178Z,24.73
2018-07-28T03:29:28.958Z,24.72
2018-07-28T03:29:50.741Z,24.72
2018-07-28T03:30:12.511Z,24.72
2018-07-28T03:30:34.293Z,24.72
2018-07-28T03:30:56.074Z,24.72
2018-07-28T03:31:17.842Z,24.72
2018-07-28T03:31:39.594Z,24.72
2018-07-28T03:32:01.364Z,24.72
2018-07-28T03:32:23.144Z,24.73
2018-07-28T03:32:44.898Z,24.73
2018-07-28T03:33:06.695Z,24.72
2018-07-28T03:33:28.470Z,24.72
2018-07-28T03:33:50.282Z,24.72
2018-07-28T03:34:12.042Z,24.72
2018-07-28T03:34:33.810Z,24.73
2018-07-28T03:34:55.578Z,24.74
2018-07-28T03:35:17.343Z,24.73
2018-07-28T03:35:39.147Z,24.73
2018-07-28T03:36:00.920Z,24.72
2018-07-28T03:36:22.731Z,24.72
2018-07-28T03:36:44.499Z,24.74
2018-07-28T03:37:06.251Z,24.72
2018-07-28T03:37:28.018Z,24.73
2018-07-28T03:37:49.773Z,24.72
2018-07-28T03:38:11.547Z,24.73
2018-07-28T03:38:33.336Z,24.72
2018-07-28T03:38:55.091Z,24.72
2018-07-28T03:39:16.862Z,24.72
2018-07-28T03:39:38.626Z,24.72
2018-07-28T03:40:00.400Z,24.71
2018-07-28T03:40:22.156Z,24.70
2018-07-28T03:40:43.916Z,24.71
2018-07-28T03:41:05.713Z,24.71
2018-07-28T03:41:27.479Z,24.73
2018-07-28T03:41:49.241Z,24.73
2018-07-28T03:42:10.999Z,24.72
2018-07-28T03:42:33.047Z,24.73
2018-07-28T03:42:54.812Z,24.72
2018-07-28T03:43:16.572Z,24.73
2018-07-28T03:43:38.322Z,24.73
2018-07-28T03:44:00.083Z,24.72
2018-07-28T03:44:21.843Z,24.72
2018-07-28T03:44:43.610Z,24.71
2018-07-28T03:45:05.420Z,24.72
2018-07-28T03:45:27.199Z,24.72
2018-07-28T03:45:49.015Z,24.72
2018-07-28T03:46:10.814Z,24.73
2018-07-28T03:46:32.595Z,24.72
2018-07-28T03:46:54.368Z,24.72
2018-07-28T03:47:16.118Z,24.72
2018-07-28T03:47:38.834Z,24.72
2018-07-28T03:48:00.601Z,24.72
2018-07-28T03:48:22.354Z,24.72
2018-07-28T03:48:44.101Z,24.72
2018-07-28T03:49:05.914Z,24.72
2018-07-28T03:49:27.649Z,24.72
2018-07-28T03:49:49.408Z,24.72
2018-07-28T03:50:11.397Z,24.73
2018-07-28T03:50:33.156Z,24.72
2018-07-28T03:50:54.925Z,24.73
2018-07-28T03:51:16.703Z,24.73
2018-07-28T03:51:38.450Z,24.72
2018-07-28T03:52:00.213Z,24.72
2018-07-28T03:52:21.972Z,24.73
2018-07-28T03:52:43.733Z,24.72
2018-07-28T03:53:05.497Z,24.72
2018-07-28T03:53:27.333Z,24.71
2018-07-28T03:53:49.119Z,24.72
2018-07-28T03:54:10.883Z,24.72
2018-07-28T03:54:32.651Z,24.71
2018-07-28T03:54:54.485Z,24.72
2018-07-28T03:55:16.283Z,24.72
2018-07-28T03:55:38.085Z,24.72
2018-07-28T03:55:59.850Z,24.72
2018-07-28T03:56:21.651Z,24.71
2018-07-28T03:56:43.418Z,24.72
2018-07-28T03:57:05.191Z,24.72
2018-07-28T03:57:26.982Z,24.72
2018-07-28T03:57:48.737Z,24.72
2018-07-28T03:58:10.492Z,24.73
2018-07-28T03:58:32.266Z,24.72
2018-07-28T03:58:54.043Z,24.72
2018-07-28T03:59:15.801Z,24.73
2018-07-28T03:59:37.562Z,24.71
2018-07-28T03:59:59.309Z,24.72
2018-07-28T04:00:21.117Z,24.71
2018-07-28T04:00:42.875Z,24.71
2018-07-28T04:01:04.639Z,24.71
2018-07-28T04:01:26.416Z,24.72
2018-07-28T04:01:48.171Z,24.72
2018-07-28T04:02:10.221Z,24.73
2018-07-28T04:02:31.982Z,24.72
2018-07-28T04:02:53.735Z,24.73
2018-07-28T04:03:15.503Z,24.71
2018-07-28T04:03:37.274Z,24.72
2018-07-28T04:03:59.038Z,24.72
2018-07-28T04:04:20.813Z,24.72
2018-07-28T04:04:42.602Z,24.72
2018-07-28T04:05:04.375Z,24.72
2018-07-28T04:05:26.138Z,24.71
2018-07-28T04:05:47.903Z,24.71
2018-07-28T04:06:09.687Z,24.71
2018-07-28T04:06:31.498Z,24.73
2018-07-28T04:06:53.279Z,24.72
2018-07-28T04:07:15.061Z,24.71
2018-07-28T04:07:36.930Z,24.73
2018-07-28T04:07:58.710Z,24.72
2018-07-28T04:08:20.471Z,24.72
2018-07-28T04:08:42.240Z,24.72
2018-07-28T04:09:04.219Z,24.72
2018-07-28T04:09:25.990Z,24.73
2018-07-28T04:09:47.771Z,24.73
2018-07-28T04:10:10.045Z,24.72
2018-07-28T04:10:31.808Z,24.73
2018-07-28T04:10:53.555Z,24.72
2018-07-28T04:11:15.327Z,24.73
2018-07-28T04:11:37.110Z,24.73
2018-07-28T04:11:58.876Z,24.73
2018-07-28T04:12:20.655Z,24.73
2018-07-28T04:12:42.441Z,24.73
2018-07-28T04:13:04.207Z,24.72
2018-07-28T04:13:26.023Z,24.73
2018-07-28T04:13:47.829Z,24.72
2018-07-28T04:14:09.618Z,24.73
2018-07-28T04:14:31.479Z,24.72
2018-07-28T04:14:53.162Z,24.73
2018-07-28T04:15:14.944Z,24.73
2018-07-28T04:15:36.690Z,24.72
2018-07-28T04:15:58.468Z,24.72
2018-07-28T04:16:20.245Z,24.71
2018-07-28T04:16:42.056Z,24.72
2018-07-28T04:17:03.830Z,24.71
2018-07-28T04:17:25.610Z,24.71
2018-07-28T04:17:51.923Z,24.72
2018-07-28T04:18:13.711Z,24.71
2018-07-28T04:18:35.478Z,24.72
2018-07-28T04:18:57.259Z,24.71
2018-07-28T04:19:19.019Z,24.72
2018-07-28T04:19:40.808Z,24.72
2018-07-28T04:20:02.592Z,24.71
2018-07-28T04:20:26.519Z,24.71
2018-07-28T04:20:48.298Z,24.72
2018-07-28T04:21:10.070Z,24.71
2018-07-28T04:21:31.823Z,24.71
2018-07-28T04:21:53.631Z,24.72
2018-07-28T04:22:15.503Z,24.71
2018-07-28T04:22:37.263Z,24.72
2018-07-28T04:22:59.026Z,24.72
2018-07-28T04:23:20.781Z,24.71
2018-07-28T04:23:42.555Z,24.71
2018-07-28T04:24:04.323Z,24.71
2018-07-28T04:24:26.089Z,24.72
2018-07-28T04:24:47.863Z,24.71
2018-07-28T04:25:09.616Z,24.72
2018-07-28T04:25:31.392Z,24.72
2018-07-28T04:25:53.235Z,24.71
2018-07-28T04:26:15.028Z,24.72
2018-07-28T04:26:36.798Z,24.72
2018-07-28T04:26:58.591Z,24.71
2018-07-28T04:27:20.383Z,24.71
2018-07-28T04:27:42.154Z,24.71
2018-07-28T04:28:03.919Z,24.72
2018-07-28T04:28:26.083Z,24.72
2018-07-28T04:28:47.857Z,24.72
2018-07-28T04:29:09.613Z,24.72
2018-07-28T04:29:31.434Z,24.72
2018-07-28T04:29:53.221Z,24.71
2018-07-28T04:30:14.979Z,24.72
2018-07-28T04:30:36.742Z,24.72
2018-07-28T04:30:58.528Z,24.72
2018-07-28T04:31:20.303Z,24.72
2018-07-28T04:31:42.084Z,24.72
2018-07-28T04:32:03.866Z,24.72
2018-07-28T04:32:25.635Z,24.72
2018-07-28T04:32:47.411Z,24.72
2018-07-28T04:33:09.196Z,24.72
2018-07-28T04:33:30.969Z,24.72
2018-07-28T04:33:52.751Z,24.72
2018-07-28T04:34:14.511Z,24.72
2018-07-28T04:34:36.270Z,24.71
2018-07-28T04:34:58.122Z,24.71
2018-07-28T04:35:19.891Z,24.71
2018-07-28T04:35:41.637Z,24.72
2018-07-28T04:36:03.419Z,24.72
2018-07-28T04:36:25.186Z,24.72
2018-07-28T04:36:46.959Z,24.72
2018-07-28T04:37:08.776Z,24.72
2018-07-28T04:37:30.546Z,24.72
2018-07-28T04:37:52.306Z,24.72
2018-07-28T04:38:14.063Z,24.72
2018-07-28T04:38:35.834Z,24.72
2018-07-28T04:38:57.597Z,24.72
2018-07-28T04:39:19.370Z,24.73
2018-07-28T04:39:41.135Z,24.72
2018-07-28T04:40:02.883Z,24.73
2018-07-28T04:40:24.669Z,24.71
2018-07-28T04:40:46.434Z,24.72
2018-07-28T04:41:08.212Z,24.71